Time;durP1;ratioP1;P1;durP2;ratioP2;P2;SDS_P1;SDS_P2;PMS_P1;PMS_P2;Temp;Humidity;BMP_temperature;BMP_pressure;BME280_temperature;BME280_humidity;BME280_pressure;Samples;Min_cycle;Max_cycle;Signal;HPM_P1;HPM_P2
2023/03/21 00:00:47;;;;;;;8.02;4.68;;;5.40;73.50;;;;;;5029632;28;20022;-77
2023/03/21 00:03:14;;;;;;;9.00;5.00;;;5.30;73.70;;;;;;5013534;28;20403;-78
2023/03/21 00:05:41;;;;;;;11.35;4.80;;;5.30;73.80;;;;;;5019445;28;20033;-78
2023/03/21 00:08:07;;;;;;;10.15;5.13;;;5.30;74.00;;;;;;5023706;28;20097;-78
2023/03/21 00:10:33;;;;;;;10.90;5.07;;;5.30;74.20;;;;;;5026530;28;20441;-79
2023/03/21 00:12:59;;;;;;;10.32;5.03;;;5.30;74.20;;;;;;5034087;28;20026;-79
2023/03/21 00:15:26;;;;;;;11.82;5.13;;;5.30;74.30;;;;;;5029328;28;20033;-78
2023/03/21 00:18:02;;;;;;;7.38;4.25;;;5.20;74.30;;;;;;5026506;28;20045;-80
2023/03/21 00:20:30;;;;;;;7.82;4.30;;;5.20;74.40;;;;;;5024759;28;20075;-79
2023/03/21 00:22:56;;;;;;;9.98;4.85;;;5.20;74.50;;;;;;5031928;28;20387;-79
2023/03/21 00:25:21;;;;;;;8.32;4.55;;;5.20;75.20;;;;;;5028010;28;20040;-79
2023/03/21 00:27:47;;;;;;;9.85;5.30;;;5.20;74.60;;;;;;5027500;28;20016;-78
2023/03/21 00:30:15;;;;;;;7.25;5.32;;;5.20;74.70;;;;;;5026217;28;20029;-78
2023/03/21 00:32:40;;;;;;;9.93;4.65;;;5.20;74.80;;;;;;5023366;28;20127;-80
2023/03/21 00:35:07;;;;;;;9.60;6.07;;;5.20;74.80;;;;;;5032368;28;20033;-78
2023/03/21 00:37:33;;;;;;;8.25;4.53;;;5.10;74.90;;;;;;5027999;28;20069;-78
2023/03/21 00:39:59;;;;;;;6.18;4.72;;;5.20;74.90;;;;;;5016908;28;20446;-79
2023/03/21 00:42:25;;;;;;;7.80;5.10;;;5.20;74.90;;;;;;5026057;28;20022;-79
2023/03/21 00:44:51;;;;;;;7.70;4.72;;;5.10;75.50;;;;;;5022062;28;20025;-80
2023/03/21 00:47:17;;;;;;;8.68;4.53;;;5.20;75.00;;;;;;5029188;28;20071;-79
2023/03/21 00:49:43;;;;;;;9.77;4.97;;;5.20;75.00;;;;;;5027374;28;20025;-80
2023/03/21 00:52:09;;;;;;;5.40;3.88;;;5.10;75.00;;;;;;5031085;28;20433;-78
2023/03/21 00:54:36;;;;;;;9.57;4.88;;;5.20;75.00;;;;;;5020419;28;20108;-79
2023/03/21 00:57:03;;;;;;;8.13;4.67;;;5.20;75.10;;;;;;5030733;28;20030;-80
2023/03/21 00:59:29;;;;;;;5.97;4.53;;;5.20;75.00;;;;;;5008034;28;20522;-78
2023/03/21 01:01:59;;;;;;;7.82;4.43;;;5.10;74.90;;;;;;5014590;28;20061;-79
2023/03/21 01:04:25;;;;;;;10.52;4.93;;;5.10;75.00;;;;;;5015673;28;20022;-80
2023/03/21 01:06:53;;;;;;;8.17;5.20;;;5.20;75.10;;;;;;5015875;28;20029;-79
2023/03/21 01:09:23;;;;;;;9.82;4.63;;;5.20;75.00;;;;;;5015456;28;20021;-79
2023/03/21 01:11:50;;;;;;;9.60;5.50;;;5.20;75.00;;;;;;5015769;28;20084;-78
2023/03/21 01:14:17;;;;;;;7.17;4.77;;;5.20;75.10;;;;;;5014251;28;20018;-80
2023/03/21 01:16:43;;;;;;;;;;;5.20;75.20;;;;;;5014322;28;20275;-79
2023/03/21 01:19:16;;;;;;;13.02;5.28;;;5.20;75.00;;;;;;5015369;28;19920;-78
2023/03/21 01:21:42;;;;;;;9.95;5.18;;;5.20;75.10;;;;;;5016257;28;20159;-79
2023/03/21 01:24:09;;;;;;;9.27;4.68;;;5.10;75.10;;;;;;5015462;28;20034;-79
2023/03/21 01:26:39;;;;;;;7.25;4.55;;;5.10;75.30;;;;;;5015161;28;20101;-79
2023/03/21 01:29:05;;;;;;;7.70;4.70;;;5.20;75.40;;;;;;5014278;28;20038;-79
2023/03/21 01:31:31;;;;;;;11.43;5.28;;;5.20;75.40;;;;;;5014113;28;20096;-79
2023/03/21 01:33:57;;;;;;;9.48;5.22;;;5.20;75.60;;;;;;5014996;28;20101;-79
2023/03/21 01:36:25;;;;;;;9.90;5.05;;;5.20;75.50;;;;;;5013710;28;20029;-80
2023/03/21 01:38:51;;;;;;;9.93;5.18;;;5.20;75.50;;;;;;5028901;28;20030;-79
2023/03/21 01:41:20;;;;;;;9.82;4.60;;;5.30;75.60;;;;;;5030143;28;20029;-80
2023/03/21 01:43:46;;;;;;;13.77;5.95;;;5.20;75.50;;;;;;5016588;28;20026;-79
2023/03/21 01:46:43;;;;;;;6.60;5.03;;;5.20;75.50;;;;;;5014217;28;20100;-80
2023/03/21 01:49:17;;;;;;;10.95;5.03;;;5.20;75.70;;;;;;5015532;28;20482;-78
2023/03/21 01:51:50;;;;;;;8.27;4.93;;;5.20;75.70;;;;;;5020444;28;20021;-80
2023/03/21 01:54:25;;;;;;;14.68;6.75;;;5.20;75.80;;;;;;5033076;28;20056;-79
2023/03/21 01:56:56;;;;;;;9.90;5.78;;;5.20;75.70;;;;;;5028421;28;20072;-79
2023/03/21 01:59:35;;;;;;;10.63;5.80;;;5.20;75.60;;;;;;5014938;28;20033;-79
2023/03/21 02:02:06;;;;;;;10.63;6.53;;;5.20;75.70;;;;;;5003752;28;20129;-80
2023/03/21 02:04:34;;;;;;;9.73;5.97;;;5.20;75.70;;;;;;5012624;28;20022;-79
2023/03/21 02:07:10;;;;;;;12.55;5.60;;;5.20;75.50;;;;;;5014618;28;20384;-80
2023/03/21 02:09:39;;;;;;;11.00;6.45;;;5.20;75.50;;;;;;5014350;28;20026;-80
2023/03/21 02:12:07;;;;;;;18.17;7.00;;;5.20;75.50;;;;;;5014244;28;20029;-78
2023/03/21 02:14:36;;;;;;;9.45;5.78;;;5.20;75.60;;;;;;5014221;28;20041;-79
2023/03/21 02:17:31;;;;;;;9.73;6.78;;;5.20;75.60;;;;;;5012933;28;20479;-80
2023/03/21 02:20:10;;;;;;;15.45;6.80;;;5.20;75.60;;;;;;5015631;28;20037;-79
2023/03/21 02:23:13;;;;;;;10.05;6.60;;;5.20;75.60;;;;;;5014849;28;20026;-78
2023/03/21 02:25:48;;;;;;;9.68;6.35;;;5.20;75.70;;;;;;5002882;28;20025;-79
2023/03/21 02:28:38;;;;;;;13.00;6.22;;;5.20;75.70;;;;;;5014088;28;20428;-80
2023/03/21 02:31:28;;;;;;;12.20;5.88;;;5.10;75.50;;;;;;5014063;28;20026;-79
2023/03/21 02:34:02;;;;;;;14.25;6.78;;;5.10;75.50;;;;;;5012690;28;20077;-78
2023/03/21 02:36:51;;;;;;;10.02;6.97;;;5.10;75.50;;;;;;5013744;28;20118;-79
2023/03/21 02:39:27;;;;;;;15.68;7.80;;;5.10;75.60;;;;;;5002073;28;20046;-78
2023/03/21 02:42:07;;;;;;;8.85;6.05;;;5.10;75.60;;;;;;5014003;28;20101;-79
2023/03/21 02:45:09;;;;;;;15.32;6.50;;;5.00;75.60;;;;;;5014432;28;20097;-80
2023/03/21 02:47:58;;;;;;;15.00;7.10;;;5.00;75.80;;;;;;5000677;28;20056;-79
2023/03/21 02:50:32;;;;;;;12.15;6.70;;;5.00;75.70;;;;;;5012812;28;20022;-79
2023/03/21 02:53:01;;;;;;;10.50;5.78;;;5.00;75.70;;;;;;5013758;28;20610;-79
2023/03/21 02:55:30;;;;;;;11.88;6.25;;;5.00;75.70;;;;;;5013582;28;20037;-79
2023/03/21 02:57:58;;;;;;;9.60;6.10;;;5.00;75.50;;;;;;5014000;28;20029;-80
2023/03/21 03:00:31;;;;;;;12.63;5.53;;;5.00;75.40;;;;;;5012363;28;20395;-78
2023/03/21 03:02:57;;;;;;;11.68;5.95;;;5.00;75.20;;;;;;5001013;28;20395;-79
2023/03/21 03:05:28;;;;;;;11.88;5.85;;;5.00;75.10;;;;;;5013886;28;20048;-79
2023/03/21 03:08:12;;;;;;;10.25;6.32;;;5.00;75.10;;;;;;5011097;28;20033;-76
2023/03/21 03:11:04;;;;;;;10.27;6.85;;;5.00;75.20;;;;;;5013225;28;20491;-79
2023/03/21 03:13:36;;;;;;;21.13;6.60;;;5.00;75.30;;;;;;5016707;28;20022;-79
2023/03/21 03:16:04;;;;;;;9.45;5.85;;;5.00;75.30;;;;;;5020467;28;20449;-78
2023/03/21 03:18:45;;;;;;;9.65;5.95;;;4.90;75.30;;;;;;5012836;28;20041;-79
2023/03/21 03:21:33;;;;;;;10.65;6.53;;;4.90;75.40;;;;;;5013211;28;20025;-80
2023/03/21 03:24:01;;;;;;;9.05;6.22;;;4.90;75.60;;;;;;5000743;28;20030;-78
2023/03/21 03:26:35;;;;;;;9.00;6.13;;;4.90;75.40;;;;;;5013796;28;20037;-79
2023/03/21 03:29:13;;;;;;;15.60;6.55;;;4.90;75.60;;;;;;5013597;28;20472;-79
2023/03/21 03:31:46;;;;;;;10.73;6.43;;;4.90;75.50;;;;;;5027563;28;20030;-78
2023/03/21 03:34:19;;;;;;;8.38;6.05;;;4.90;75.60;;;;;;5013486;28;20056;-79
2023/03/21 03:36:50;;;;;;;11.63;6.82;;;4.90;75.60;;;;;;5013525;28;20438;-78
2023/03/21 03:39:18;;;;;;;13.45;7.35;;;4.90;75.40;;;;;;5014265;28;20120;-79
2023/03/21 03:41:50;;;;;;;;;;;4.90;75.40;;;;;;5013629;28;20026;-78
2023/03/21 03:44:16;;;;;;;12.93;5.93;;;5.00;75.30;;;;;;5015340;28;19905;-78
2023/03/21 03:46:49;;;;;;;12.35;6.22;;;4.90;75.30;;;;;;5012943;28;20049;-79
2023/03/21 03:49:23;;;;;;;17.05;6.90;;;4.90;76.00;;;;;;4998640;28;20107;-78
2023/03/21 03:51:52;;;;;;;11.80;6.30;;;4.90;75.30;;;;;;5011545;28;20018;-79
2023/03/21 03:54:25;;;;;;;12.25;6.80;;;4.90;75.30;;;;;;5013271;28;20026;-79
2023/03/21 03:56:51;;;;;;;13.43;6.85;;;4.90;75.10;;;;;;5012997;28;20171;-79
2023/03/21 03:59:24;;;;;;;12.52;7.03;;;4.90;75.10;;;;;;5011513;28;20088;-79
2023/03/21 04:01:50;;;;;;;12.45;6.35;;;5.00;75.10;;;;;;5012322;28;20033;-79
2023/03/21 04:04:17;;;;;;;11.87;7.10;;;5.00;75.10;;;;;;5027652;28;20105;-77
2023/03/21 04:06:50;;;;;;;13.57;6.32;;;5.00;75.20;;;;;;5011811;28;20029;-79
2023/03/21 04:09:16;;;;;;;12.43;6.40;;;5.00;75.20;;;;;;5014435;28;20030;-78
2023/03/21 04:11:43;;;;;;;10.88;6.68;;;5.00;75.20;;;;;;5012794;28;20010;-78
2023/03/21 04:14:09;;;;;;;10.90;6.97;;;5.00;75.20;;;;;;5011915;28;20053;-79
2023/03/21 04:16:34;;;;;;;10.85;6.30;;;5.00;75.20;;;;;;5013011;28;20022;-79
2023/03/21 04:19:01;;;;;;;12.38;7.05;;;5.00;75.30;;;;;;5012957;28;20488;-78
2023/03/21 04:21:27;;;;;;;12.73;5.95;;;5.00;75.30;;;;;;5026223;28;20025;-79
2023/03/21 04:23:54;;;;;;;17.30;6.40;;;5.00;75.20;;;;;;5012607;28;20028;-78
2023/03/21 04:26:21;;;;;;;16.30;6.60;;;5.00;75.10;;;;;;5011559;28;20380;-79
2023/03/21 04:28:47;;;;;;;11.33;6.90;;;5.10;75.10;;;;;;5028585;28;20416;-80
2023/03/21 04:31:13;;;;;;;12.32;7.10;;;5.10;74.90;;;;;;5019125;28;20279;-79
2023/03/21 04:33:39;;;;;;;12.45;6.40;;;5.10;74.60;;;;;;5025984;28;20026;-78
2023/03/21 04:36:08;;;;;;;11.82;6.50;;;5.10;74.50;;;;;;5019171;28;20026;-78
2023/03/21 04:38:35;;;;;;;11.50;6.63;;;5.10;74.50;;;;;;5015554;28;20045;-79
2023/03/21 04:41:01;;;;;;;13.15;6.82;;;5.20;74.20;;;;;;5014374;28;20021;-79
2023/03/21 04:43:27;;;;;;;17.48;8.07;;;5.10;74.10;;;;;;5013561;28;20040;-80
2023/03/21 04:45:54;;;;;;;15.68;7.15;;;5.20;74.30;;;;;;5011551;28;20029;-80
2023/03/21 04:48:23;;;;;;;18.80;7.07;;;5.20;74.30;;;;;;5011348;28;20365;-79
2023/03/21 04:50:50;;;;;;;12.68;6.78;;;5.20;74.20;;;;;;5012443;28;20025;-80
2023/03/21 04:53:16;;;;;;;17.52;7.68;;;5.20;74.20;;;;;;5012435;28;20091;-80
2023/03/21 04:55:42;;;;;;;14.85;6.90;;;5.30;74.80;;;;;;5012555;28;20018;-80
2023/03/21 04:58:08;;;;;;;12.82;7.38;;;5.40;74.10;;;;;;5012302;28;20049;-79
2023/03/21 05:00:37;;;;;;;13.55;8.00;;;5.40;73.80;;;;;;5012753;28;20025;-80
2023/03/21 05:03:07;;;;;;;14.82;7.13;;;5.50;73.50;;;;;;5022495;28;20056;-80
2023/03/21 05:05:37;;;;;;;12.38;8.10;;;5.50;73.60;;;;;;5027348;28;20049;-82
2023/03/21 05:08:04;;;;;;;14.93;8.25;;;5.60;73.60;;;;;;5023510;28;20033;-80
2023/03/21 05:10:30;;;;;;;12.90;7.60;;;5.60;73.50;;;;;;5016030;28;20072;-81
2023/03/21 05:12:56;;;;;;;15.18;8.32;;;5.60;73.50;;;;;;5016014;28;20030;-80
2023/03/21 05:15:22;;;;;;;12.38;8.10;;;5.70;73.50;;;;;;5012253;28;20034;-80
2023/03/21 05:17:48;;;;;;;13.93;7.72;;;5.70;73.10;;;;;;5013225;28;20099;-81
2023/03/21 05:20:16;;;;;;;16.55;8.30;;;5.70;73.10;;;;;;5013583;28;20068;-80
2023/03/21 05:22:44;;;;;;;20.27;7.97;;;5.60;73.20;;;;;;5015219;28;20387;-80
2023/03/21 05:25:12;;;;;;;17.90;8.55;;;5.60;73.40;;;;;;5015617;28;20014;-81
2023/03/21 05:27:44;;;;;;;14.98;7.80;;;5.60;73.50;;;;;;5015677;28;20018;-79
2023/03/21 05:30:16;;;;;;;15.07;7.70;;;5.60;73.50;;;;;;5014544;28;20018;-81
2023/03/21 05:32:42;;;;;;;16.50;8.27;;;5.60;73.50;;;;;;5005267;28;20057;-80
2023/03/21 05:35:09;;;;;;;14.20;6.93;;;5.70;73.40;;;;;;5021130;28;20120;-80
2023/03/21 05:37:35;;;;;;;15.57;8.00;;;5.80;73.30;;;;;;5018652;28;20025;-80
2023/03/21 05:40:01;;;;;;;15.00;9.55;;;5.80;73.10;;;;;;5016913;28;20053;-78
2023/03/21 05:42:27;;;;;;;13.13;7.80;;;5.80;73.10;;;;;;5025992;28;20018;-82
2023/03/21 05:44:53;;;;;;;16.15;8.20;;;5.80;73.20;;;;;;5020887;28;20029;-81
2023/03/21 05:47:19;;;;;;;14.15;8.05;;;5.90;73.10;;;;;;5021805;28;20018;-81
2023/03/21 05:49:45;;;;;;;17.73;8.90;;;6.00;72.80;;;;;;5008548;28;20068;-80
2023/03/21 05:52:11;;;;;;;14.77;8.30;;;6.00;73.00;;;;;;5020882;28;20491;-81
2023/03/21 05:54:37;;;;;;;14.45;8.05;;;6.00;73.00;;;;;;5024452;28;20026;-80
2023/03/21 05:57:04;;;;;;;18.77;9.15;;;6.10;72.90;;;;;;5020749;28;20120;-80
2023/03/21 05:59:30;;;;;;;15.38;9.02;;;6.10;72.90;;;;;;5023167;28;20030;-82
2023/03/21 06:01:56;;;;;;;15.68;8.27;;;6.10;73.00;;;;;;5023725;28;20078;-80
2023/03/21 06:04:22;;;;;;;16.67;8.05;;;6.10;73.00;;;;;;5019086;28;20026;-81
2023/03/21 06:06:49;;;;;;;13.65;7.15;;;6.10;72.50;;;;;;5023765;28;20018;-80
2023/03/21 06:09:15;;;;;;;16.50;8.02;;;6.10;72.60;;;;;;5021206;28;20053;-80
2023/03/21 06:11:45;;;;;;;18.80;8.60;;;6.10;72.90;;;;;;5010877;28;20138;-79
2023/03/21 06:14:11;;;;;;;14.60;7.38;;;6.10;72.90;;;;;;5019735;28;20021;-80
2023/03/21 06:16:37;;;;;;;16.10;8.05;;;6.20;73.00;;;;;;5020767;28;20097;-81
2023/03/21 06:19:03;;;;;;;16.38;8.23;;;6.10;73.00;;;;;;5014218;28;20045;-80
2023/03/21 06:21:29;;;;;;;14.40;8.88;;;6.10;73.20;;;;;;5017411;28;20049;-79
2023/03/21 06:23:55;;;;;;;13.70;8.38;;;6.20;73.40;;;;;;5029707;28;20056;-80
2023/03/21 06:26:22;;;;;;;15.82;8.88;;;6.20;73.30;;;;;;5038709;28;20295;-80
2023/03/21 06:28:51;;;;;;;12.77;8.50;;;6.30;73.50;;;;;;5022822;28;20030;-82
2023/03/21 06:31:19;;;;;;;17.65;8.48;;;6.20;73.80;;;;;;5018397;28;20045;-81
2023/03/21 06:33:45;;;;;;;13.20;8.38;;;6.20;74.40;;;;;;5033142;28;20018;-83
2023/03/21 06:36:11;;;;;;;14.50;8.90;;;6.20;74.80;;;;;;5029220;28;20036;-83
2023/03/21 06:38:37;;;;;;;13.80;8.50;;;6.20;75.00;;;;;;5020404;28;20057;-80
2023/03/21 06:41:04;;;;;;;21.67;8.30;;;6.20;75.30;;;;;;5012003;28;20072;-84
2023/03/21 06:43:30;;;;;;;14.27;8.52;;;6.30;75.60;;;;;;5022533;28;20018;-81
2023/03/21 06:45:57;;;;;;;13.60;8.38;;;6.30;75.50;;;;;;5029163;28;20026;-82
2023/03/21 06:48:23;;;;;;;15.88;9.27;;;6.20;75.80;;;;;;5024986;28;20030;-82
2023/03/21 06:50:50;;;;;;;18.10;9.38;;;6.20;76.10;;;;;;5019653;28;20057;-82
2023/03/21 06:53:17;;;;;;;22.17;11.18;;;6.30;76.40;;;;;;5022241;28;20099;-83
2023/03/21 06:55:55;;;;;;;22.13;9.90;;;6.50;76.10;;;;;;5025779;28;20097;-83
2023/03/21 06:58:22;;;;;;;;;;;6.80;75.80;;;;;;5013021;28;20038;-82
2023/03/21 07:00:48;;;;;;;17.00;9.40;;;7.00;75.40;;;;;;5022307;28;19905;-83
2023/03/21 07:03:14;;;;;;;18.67;9.75;;;7.10;74.80;;;;;;5021577;28;20077;-82
2023/03/21 07:05:40;;;;;;;17.42;9.85;;;7.10;74.30;;;;;;5023933;28;20483;-82
2023/03/21 07:08:11;;;;;;;26.83;10.25;;;7.20;74.40;;;;;;5030503;28;20018;-82
2023/03/21 07:10:42;;;;;;;19.08;11.25;;;7.40;74.40;;;;;;5026947;28;20026;-81
2023/03/21 07:13:08;;;;;;;16.35;9.88;;;7.60;73.80;;;;;;5033419;28;20033;-84
2023/03/21 07:15:36;;;;;;;14.70;9.80;;;8.10;73.30;;;;;;5019176;28;20045;-83
2023/03/21 07:18:06;;;;;;;15.20;9.85;;;8.50;72.10;;;;;;5018534;28;20022;-82
2023/03/21 07:20:33;;;;;;;13.50;9.70;;;8.90;71.20;;;;;;5026868;28;20032;-83
2023/03/21 07:22:59;;;;;;;14.73;10.13;;;9.20;70.30;;;;;;5026474;28;20066;-83
2023/03/21 07:25:26;;;;;;;14.90;9.20;;;9.40;69.40;;;;;;5007093;28;20514;-83
2023/03/21 07:27:52;;;;;;;16.45;10.95;;;9.50;69.10;;;;;;5022097;28;20018;-83
2023/03/21 07:30:18;;;;;;;16.58;10.55;;;9.30;69.00;;;;;;5024779;28;20081;-82
2023/03/21 07:32:46;;;;;;;14.02;9.73;;;9.00;69.00;;;;;;5021353;28;20105;-83
2023/03/21 07:35:14;;;;;;;16.00;8.73;;;8.60;70.10;;;;;;5037062;28;20025;-83
2023/03/21 07:37:40;;;;;;;14.68;9.80;;;8.40;71.30;;;;;;5015330;28;20509;-84
2023/03/21 07:40:11;;;;;;;15.55;9.23;;;8.30;72.40;;;;;;5014949;28;20025;-84
2023/03/21 07:42:39;;;;;;;16.38;9.30;;;8.20;73.50;;;;;;5016510;28;20364;-83
2023/03/21 07:45:06;;;;;;;14.52;8.40;;;8.20;74.10;;;;;;5021617;28;20037;-83
2023/03/21 07:47:33;;;;;;;13.95;8.82;;;8.10;74.60;;;;;;5022521;28;20014;-83
2023/03/21 07:49:59;;;;;;;14.38;8.73;;;8.20;75.20;;;;;;5020991;28;20450;-83
2023/03/21 07:52:26;;;;;;;13.07;8.15;;;8.20;75.90;;;;;;5019858;28;20018;-83
2023/03/21 07:54:52;;;;;;;12.57;8.48;;;8.00;75.70;;;;;;5016418;28;20495;-85
2023/03/21 07:57:17;;;;;;;12.65;8.65;;;7.80;76.90;;;;;;5018445;28;20033;-83
2023/03/21 07:59:44;;;;;;;14.43;9.82;;;7.70;77.20;;;;;;5018998;28;20026;-82
2023/03/21 08:02:15;;;;;;;15.90;9.65;;;7.70;77.50;;;;;;5015125;28;20050;-82
2023/03/21 08:04:41;;;;;;;14.10;9.57;;;7.80;77.90;;;;;;5015010;28;20545;-82
2023/03/21 08:07:07;;;;;;;17.80;9.55;;;7.90;77.80;;;;;;5013399;28;20033;-83
2023/03/21 08:09:33;;;;;;;16.67;9.30;;;7.90;77.90;;;;;;5014722;28;20018;-83
2023/03/21 08:11:59;;;;;;;12.75;9.13;;;7.80;78.10;;;;;;5015022;28;20033;-84
2023/03/21 08:14:24;;;;;;;12.90;8.43;;;8.00;78.60;;;;;;5017012;28;20014;-83
2023/03/21 08:16:51;;;;;;;16.55;9.10;;;8.10;78.70;;;;;;5013260;28;20069;-84
2023/03/21 08:19:20;;;;;;;16.95;9.07;;;8.30;78.90;;;;;;5014321;28;20030;-82
2023/03/21 08:21:50;;;;;;;14.77;9.60;;;8.40;78.50;;;;;;5014561;28;20010;-84
2023/03/21 08:24:16;;;;;;;12.85;9.23;;;8.50;78.90;;;;;;5014413;28;20076;-84
2023/03/21 08:26:44;;;;;;;15.32;8.90;;;8.70;79.20;;;;;;5013572;28;20498;-85
2023/03/21 08:29:11;;;;;;;12.43;8.98;;;8.90;78.90;;;;;;5051942;28;20037;-84
2023/03/21 08:31:39;;;;;;;11.97;8.67;;;9.10;79.00;;;;;;5052782;28;20106;-84
2023/03/21 08:34:06;;;;;;;14.07;9.98;;;9.30;78.60;;;;;;5059518;28;20021;-83
2023/03/21 08:36:35;;;;;;;13.87;8.83;;;9.50;78.40;;;;;;5047157;28;20055;-83
2023/03/21 08:39:04;;;;;;;14.05;10.40;;;9.40;77.60;;;;;;5039166;28;20044;-84
2023/03/21 08:41:31;;;;;;;11.25;8.35;;;9.10;78.40;;;;;;5049030;28;20065;-84
2023/03/21 08:43:57;;;;;;;15.18;8.98;;;9.00;78.80;;;;;;5034962;28;20433;-84
2023/03/21 08:46:24;;;;;;;17.00;9.32;;;8.80;79.10;;;;;;5051784;28;20021;-84
2023/03/21 08:48:49;;;;;;;13.68;8.57;;;8.80;79.50;;;;;;5051526;28;20040;-84
2023/03/21 08:51:15;;;;;;;12.23;9.27;;;8.70;79.90;;;;;;5038100;28;20021;-83
2023/03/21 08:53:42;;;;;;;16.88;11.15;;;8.70;80.00;;;;;;5038645;28;20149;-83
2023/03/21 08:56:09;;;;;;;14.50;8.90;;;8.50;80.30;;;;;;5057838;28;20083;-84
2023/03/21 08:58:36;;;;;;;15.75;7.57;;;8.40;81.10;;;;;;5056093;28;20495;-85
2023/03/21 09:01:02;;;;;;;12.75;8.07;;;8.20;81.90;;;;;;5053324;28;20095;-84
2023/03/21 09:03:29;;;;;;;12.07;8.10;;;8.10;83.40;;;;;;5037109;28;20533;-81
2023/03/21 09:05:57;;;;;;;10.68;7.38;;;8.10;83.50;;;;;;5041387;28;20042;-84
2023/03/21 09:08:23;;;;;;;12.23;8.55;;;8.30;83.90;;;;;;5022222;28;20022;-83
2023/03/21 09:10:52;;;;;;;12.18;8.52;;;8.30;83.80;;;;;;5023596;28;20029;-83
2023/03/21 09:13:18;;;;;;;9.50;7.93;;;8.60;84.50;;;;;;5035740;28;20100;-83
2023/03/21 09:15:44;;;;;;;10.88;7.65;;;9.00;83.80;;;;;;5018834;28;20022;-84
2023/03/21 09:18:16;;;;;;;13.38;9.73;;;9.60;82.80;;;;;;5019753;28;20033;-83
2023/03/21 09:20:46;;;;;;;14.50;8.85;;;9.90;80.40;;;;;;5027634;28;20072;-83
2023/03/21 09:23:13;;;;;;;19.63;9.32;;;10.30;79.90;;;;;;5038115;28;20021;-83
2023/03/21 09:25:41;;;;;;;11.98;8.80;;;10.40;79.50;;;;;;5039306;28;20026;-84
2023/03/21 09:28:07;;;;;;;13.52;9.57;;;10.60;79.70;;;;;;5030211;28;20032;-83
2023/03/21 09:30:34;;;;;;;14.45;8.98;;;11.20;78.60;;;;;;5020561;28;20053;-83
2023/03/21 09:33:02;;;;;;;11.55;8.45;;;11.90;76.60;;;;;;5019111;28;20184;-84
2023/03/21 09:35:28;;;;;;;11.63;7.90;;;12.00;74.20;;;;;;5019060;28;20088;-83
2023/03/21 09:37:57;;;;;;;13.77;8.23;;;11.60;74.00;;;;;;5020467;28;20033;-83
2023/03/21 09:40:48;;;;;;;10.93;8.23;;;11.00;75.20;;;;;;5021851;28;20030;-85
2023/03/21 09:43:23;;;;;;;9.50;7.50;;;10.70;76.40;;;;;;5024108;28;20030;-84
2023/03/21 09:45:57;;;;;;;9.95;6.97;;;10.50;78.50;;;;;;5025553;28;20030;-84
2023/03/21 09:48:40;;;;;;;11.50;7.40;;;11.00;77.90;;;;;;5034813;28;20032;-84
2023/03/21 09:51:14;;;;;;;10.88;7.15;;;11.60;76.70;;;;;;5020765;28;20018;-85
2023/03/21 09:53:42;;;;;;;10.93;7.10;;;12.50;74.60;;;;;;5019742;28;20377;-86
2023/03/21 09:56:12;;;;;;;9.93;6.50;;;13.40;71.80;;;;;;5029540;28;20090;-84
2023/03/21 09:58:51;;;;;;;6.60;5.32;;;13.90;67.80;;;;;;5028502;28;20125;-84
2023/03/21 10:01:31;;;;;;;6.97;5.97;;;14.20;67.10;;;;;;5012186;28;20026;-84
2023/03/21 10:04:06;;;;;;;9.23;7.05;;;15.00;65.30;;;;;;5015508;28;20042;-84
2023/03/21 10:06:38;;;;;;;13.02;9.18;;;15.70;62.30;;;;;;5018026;28;20033;-84
2023/03/21 10:09:23;;;;;;;9.45;6.63;;;16.60;60.40;;;;;;5021956;28;20066;-83
2023/03/21 10:12:13;;;;;;;9.95;6.65;;;16.60;58.80;;;;;;5007103;28;20026;-83
2023/03/21 10:14:49;;;;;;;8.98;6.20;;;15.90;58.50;;;;;;5020874;28;20021;-83
2023/03/21 10:17:27;;;;;;;10.23;6.68;;;15.00;59.70;;;;;;5021030;28;20045;-83
2023/03/21 10:20:14;;;;;;;8.57;5.43;;;14.10;61.30;;;;;;5036832;28;20029;-82
2023/03/21 10:22:41;;;;;;;9.88;5.97;;;13.60;62.30;;;;;;5009230;28;20033;-83
2023/03/21 10:25:14;;;;;;;10.00;5.88;;;13.10;63.30;;;;;;5033447;28;20089;-84
2023/03/21 10:27:40;;;;;;;8.35;6.28;;;12.70;64.10;;;;;;5018260;28;20028;-84
2023/03/21 10:30:09;;;;;;;10.60;7.20;;;12.20;65.30;;;;;;5018156;28;20113;-84
2023/03/21 10:32:36;;;;;;;11.20;7.05;;;11.80;66.80;;;;;;5018258;28;20119;-83
2023/03/21 10:35:03;;;;;;;8.07;5.80;;;11.80;67.70;;;;;;5018091;28;20022;-85
2023/03/21 10:37:31;;;;;;;9.95;7.15;;;11.70;67.30;;;;;;5017712;28;20018;-83
2023/03/21 10:39:57;;;;;;;10.32;8.35;;;11.60;67.60;;;;;;5016145;28;20033;-82
2023/03/21 10:42:25;;;;;;;10.38;6.07;;;11.60;68.00;;;;;;5016159;28;20037;-84
2023/03/21 10:44:53;;;;;;;8.02;5.68;;;11.70;67.90;;;;;;5016807;28;20034;-83
2023/03/21 10:47:41;;;;;;;8.05;6.07;;;11.60;67.80;;;;;;5019670;28;20018;-85
2023/03/21 10:50:12;;;;;;;12.45;8.50;;;11.40;68.30;;;;;;5017843;28;20053;-83
2023/03/21 10:52:49;;;;;;;8.18;5.78;;;11.20;68.60;;;;;;5004659;28;20052;-83
2023/03/21 10:55:32;;;;;;;8.45;5.90;;;11.10;68.70;;;;;;5015633;28;20024;-84
2023/03/21 10:58:24;;;;;;;8.43;6.85;;;10.90;69.30;;;;;;5005307;28;20061;-84
2023/03/21 11:00:58;;;;;;;8.43;6.10;;;10.90;69.90;;;;;;5021833;28;20029;-83
2023/03/21 11:03:31;;;;;;;7.93;6.32;;;10.90;69.80;;;;;;5026406;28;20045;-84
2023/03/21 11:06:20;;;;;;;9.88;6.43;;;11.10;69.70;;;;;;5017259;28;20097;-82
2023/03/21 11:08:50;;;;;;;11.55;7.03;;;11.10;69.40;;;;;;5017765;28;20427;-84
2023/03/21 11:11:21;;;;;;;10.80;7.38;;;11.00;69.60;;;;;;5021500;28;20031;-83
2023/03/21 11:13:57;;;;;;;9.27;5.85;;;10.70;70.10;;;;;;5016664;28;20025;-84
2023/03/21 11:16:39;;;;;;;8.20;6.10;;;10.60;70.60;;;;;;5014254;28;20108;-85
2023/03/21 11:19:29;;;;;;;12.18;6.55;;;10.40;70.70;;;;;;5012849;28;20049;-84
2023/03/21 11:21:57;;;;;;;11.80;7.32;;;10.30;70.70;;;;;;5015120;28;20025;-84
2023/03/21 11:24:27;;;;;;;13.77;9.90;;;10.10;70.40;;;;;;5016216;28;20087;-83
2023/03/21 11:26:57;;;;;;;11.50;8.00;;;10.10;72.00;;;;;;5017880;28;20033;-84
2023/03/21 11:29:25;;;;;;;8.38;5.75;;;10.10;72.20;;;;;;5018258;28;20030;-82
2023/03/21 11:31:51;;;;;;;12.57;6.97;;;10.20;71.30;;;;;;5021231;28;20538;-81
2023/03/21 11:34:33;;;;;;;10.65;6.38;;;10.20;70.60;;;;;;5024084;28;20077;-83
2023/03/21 11:37:01;;;;;;;7.50;5.75;;;10.20;70.30;;;;;;5023291;28;20040;-83
2023/03/21 11:39:32;;;;;;;7.25;4.63;;;10.10;70.10;;;;;;5020189;28;20109;-82
2023/03/21 11:41:58;;;;;;;6.28;4.53;;;10.10;69.30;;;;;;5032892;28;20864;-83
2023/03/21 11:44:32;;;;;;;5.80;4.40;;;10.00;67.90;;;;;;5017112;28;20025;-81
2023/03/21 11:46:58;;;;;;;10.10;4.75;;;10.00;67.60;;;;;;5016883;28;20026;-82
2023/03/21 11:49:25;;;;;;;7.72;4.88;;;9.90;67.80;;;;;;5014543;28;20540;-83
2023/03/21 11:52:38;;;;;;;8.43;5.47;;;9.90;67.20;;;;;;5015918;28;20030;-83
2023/03/21 11:55:30;;;;;;;8.55;4.85;;;10.00;67.30;;;;;;4959068;28;20031;-83
2023/03/21 11:58:29;;;;;;;9.40;5.32;;;10.00;67.00;;;;;;4965883;28;20031;-84
2023/03/21 12:01:31;;;;;;;6.55;4.50;;;10.10;66.40;;;;;;4980274;28;20035;-83
2023/03/21 12:04:17;;;;;;;8.10;4.45;;;10.10;66.00;;;;;;4977964;28;20042;-84
2023/03/21 12:06:53;;;;;;;9.45;5.43;;;10.10;66.10;;;;;;4974043;28;20034;-84
2023/03/21 12:09:32;;;;;;;9.83;4.90;;;10.10;66.00;;;;;;4974703;28;20026;-83
2023/03/21 12:12:07;;;;;;;9.88;6.75;;;10.10;66.20;;;;;;4968159;28;20401;-84
2023/03/21 12:15:02;;;;;;;9.45;5.10;;;10.10;66.50;;;;;;4970962;28;20139;-83
2023/03/21 12:17:31;;;;;;;8.27;5.03;;;10.10;66.20;;;;;;4983823;28;20424;-83
2023/03/21 12:20:24;;;;;;;11.48;5.57;;;10.10;65.00;;;;;;4974681;28;20042;-82
2023/03/21 12:23:17;;;;;;;8.07;5.43;;;10.00;65.00;;;;;;4979823;28;20027;-84
2023/03/21 12:25:58;;;;;;;6.78;4.45;;;10.00;65.40;;;;;;4998730;28;20030;-86
2023/03/21 12:28:44;;;;;;;6.07;4.00;;;10.00;64.60;;;;;;5026751;28;20030;-84
2023/03/21 12:31:41;;;;;;;8.43;4.65;;;10.10;64.50;;;;;;5019210;28;20022;-83
2023/03/21 12:34:31;;;;;;;9.63;4.57;;;10.40;64.30;;;;;;5006833;28;20030;-84
2023/03/21 12:37:39;;;;;;;5.18;3.42;;;10.80;62.40;;;;;;5018216;28;20022;-84
2023/03/21 12:40:29;;;;;;;11.55;4.20;;;11.00;60.50;;;;;;5010714;28;20056;-83
2023/03/21 12:43:29;;;;;;;6.90;3.83;;;10.80;60.00;;;;;;5018484;28;20026;-83
2023/03/21 12:46:02;;;;;;;5.78;3.80;;;10.60;60.50;;;;;;5005636;28;20025;-84
2023/03/21 12:48:53;;;;;;;5.03;3.65;;;10.40;60.30;;;;;;5017737;28;20076;-83
2023/03/21 12:51:25;;;;;;;5.25;4.22;;;10.30;60.50;;;;;;5010939;28;20022;-84
2023/03/21 12:54:20;;;;;;;6.10;4.43;;;10.20;61.00;;;;;;5019778;28;20395;-84
2023/03/21 12:57:10;;;;;;;6.72;3.58;;;10.20;61.20;;;;;;5019593;28;20486;-82
2023/03/21 13:00:07;;;;;;;6.13;3.72;;;10.20;60.70;;;;;;5018095;28;20025;-85
2023/03/21 13:02:50;;;;;;;8.25;4.80;;;10.20;61.00;;;;;;5017109;28;20042;-83
2023/03/21 13:05:33;;;;;;;6.07;3.78;;;10.10;60.90;;;;;;5016237;28;20026;-83
2023/03/21 13:08:02;;;;;;;6.25;4.13;;;10.10;60.40;;;;;;5016727;28;20037;-84
2023/03/21 13:10:29;;;;;;;4.95;4.05;;;10.00;60.50;;;;;;5015719;28;20040;-84